Time;durP1;ratioP1;P1;durP2;ratioP2;P2;SDS_P1;SDS_P2;PMS_P1;PMS_P2;Temp;Humidity;BMP_temperature;BMP_pressure;BME280_temperature;BME280_humidity;BME280_pressure;Samples;Min_cycle;Max_cycle;Signal;HPM_P1;HPM_P2
2021/05/16 00:00:20;;;;;;;2.47;2.28;;;10.90;99.90;;;;;;5011606;28;20242;-77
2021/05/16 00:02:47;;;;;;;2.00;1.90;;;11.00;99.90;;;;;;5006831;28;20245;-76
2021/05/16 00:05:14;;;;;;;1.77;1.67;;;11.00;99.90;;;;;;5012590;28;20315;-77
2021/05/16 00:07:42;;;;;;;2.63;2.25;;;11.00;99.90;;;;;;5013030;28;20192;-77
2021/05/16 00:10:11;;;;;;;2.75;2.53;;;11.00;99.90;;;;;;5013944;28;20213;-77
2021/05/16 00:12:39;;;;;;;5.22;3.03;;;11.00;99.90;;;;;;5013231;28;20288;-77
2021/05/16 00:15:10;;;;;;;2.58;2.38;;;10.90;99.90;;;;;;4996430;28;20229;-77
2021/05/16 00:17:37;;;;;;;4.10;2.30;;;10.90;99.90;;;;;;5012478;28;20193;-77
2021/05/16 00:20:08;;;;;;;3.63;1.83;;;10.90;99.90;;;;;;5013349;28;20220;-77
2021/05/16 00:22:35;;;;;;;2.78;2.47;;;10.80;99.90;;;;;;5012894;28;20687;-77
2021/05/16 00:25:03;;;;;;;3.38;2.30;;;10.80;99.90;;;;;;5013823;28;20273;-77
2021/05/16 00:27:30;;;;;;;2.72;1.98;;;10.70;99.90;;;;;;5015699;28;20204;-77
2021/05/16 00:29:56;;;;;;;2.88;1.95;;;10.70;99.90;;;;;;5016963;28;20219;-77
2021/05/16 00:32:23;;;;;;;3.30;1.83;;;10.70;99.90;;;;;;5014210;28;20216;-77
2021/05/16 00:34:52;;;;;;;2.55;2.35;;;10.60;99.90;;;;;;4996640;28;20225;-77
2021/05/16 00:37:19;;;;;;;3.30;2.38;;;10.70;99.90;;;;;;5013945;28;20291;-77
2021/05/16 00:39:46;;;;;;;3.97;2.45;;;10.70;99.90;;;;;;5013567;28;20303;-77
2021/05/16 00:42:14;;;;;;;4.28;2.28;;;10.70;99.90;;;;;;4996208;28;20588;-77
2021/05/16 00:44:56;;;;;;;2.88;2.55;;;10.60;99.90;;;;;;5024836;28;20303;-77
2021/05/16 00:47:23;;;;;;;2.05;1.48;;;10.50;99.90;;;;;;5029287;28;20197;-77
2021/05/16 00:49:52;;;;;;;2.70;2.38;;;10.60;99.90;;;;;;4995851;28;20696;-77
2021/05/16 00:52:19;;;;;;;2.83;2.40;;;10.50;99.90;;;;;;4996593;28;20274;-77
2021/05/16 00:54:46;;;;;;;3.30;2.58;;;10.30;99.90;;;;;;5012741;28;20203;-76
2021/05/16 00:57:13;;;;;;;4.20;2.80;;;10.30;99.90;;;;;;5012298;28;20377;-76
2021/05/16 00:59:41;;;;;;;4.30;3.10;;;10.30;99.90;;;;;;5012314;28;20219;-77
2021/05/16 01:02:08;;;;;;;2.65;2.45;;;10.30;99.90;;;;;;4998140;28;20219;-77
2021/05/16 01:04:35;;;;;;;3.47;2.70;;;10.40;99.90;;;;;;4996850;28;20209;-77
2021/05/16 01:07:02;;;;;;;7.05;3.05;;;10.40;99.90;;;;;;5013019;28;20223;-77
2021/05/16 01:09:30;;;;;;;2.63;2.53;;;10.50;99.90;;;;;;5011969;28;20278;-77
2021/05/16 01:11:58;;;;;;;3.55;3.13;;;10.50;99.90;;;;;;4996795;28;20228;-77
2021/05/16 01:14:33;;;;;;;3.15;2.25;;;10.50;99.90;;;;;;5014187;28;20204;-77
2021/05/16 01:17:01;;;;;;;4.10;2.75;;;10.60;99.90;;;;;;5015097;28;20249;-77
2021/05/16 01:19:30;;;;;;;4.00;2.45;;;10.50;99.90;;;;;;5012826;28;20238;-77
2021/05/16 01:21:58;;;;;;;3.50;2.97;;;10.60;99.90;;;;;;5013454;28;20682;-77
2021/05/16 01:24:27;;;;;;;2.67;2.58;;;10.60;99.90;;;;;;4995892;28;20219;-77
2021/05/16 01:27:03;;;;;;;3.95;2.55;;;10.60;99.90;;;;;;5016792;28;20204;-77
2021/05/16 01:29:30;;;;;;;5.03;2.50;;;10.60;99.90;;;;;;5018575;28;20246;-77
2021/05/16 01:31:58;;;;;;;2.50;2.38;;;10.60;99.90;;;;;;4995402;28;20698;-77
2021/05/16 01:34:24;;;;;;;3.78;2.53;;;10.70;99.90;;;;;;5000740;28;20258;-77
2021/05/16 01:36:51;;;;;;;5.28;3.03;;;10.80;99.90;;;;;;5000527;28;20330;-77
2021/05/16 01:39:20;;;;;;;5.63;2.70;;;10.70;99.90;;;;;;5028440;28;20594;-77
2021/05/16 01:41:47;;;;;;;6.63;2.85;;;10.70;99.90;;;;;;5015716;28;20659;-77
2021/05/16 01:44:17;;;;;;;4.70;2.88;;;10.70;99.90;;;;;;5016499;28;20230;-76
2021/05/16 01:46:45;;;;;;;4.57;3.03;;;10.60;99.90;;;;;;5015544;28;20196;-76
2021/05/16 01:49:12;;;;;;;3.00;2.80;;;10.60;99.90;;;;;;5012629;28;20226;-77
2021/05/16 01:51:39;;;;;;;3.58;3.03;;;10.70;99.90;;;;;;5015915;28;20288;-77
2021/05/16 01:54:07;;;;;;;4.97;2.50;;;10.70;99.90;;;;;;5015265;28;20208;-77
2021/05/16 01:56:35;;;;;;;4.28;2.50;;;10.70;99.90;;;;;;5015317;28;20343;-76
2021/05/16 01:59:03;;;;;;;2.70;2.45;;;10.70;99.90;;;;;;5015014;28;20224;-77
2021/05/16 02:01:29;;;;;;;4.38;2.97;;;10.70;99.90;;;;;;5020751;28;20204;-77
2021/05/16 02:04:02;;;;;;;4.88;2.67;;;10.80;99.90;;;;;;5014572;28;20200;-77
2021/05/16 02:06:29;;;;;;;2.40;1.80;;;10.90;99.90;;;;;;5015407;28;20224;-77
2021/05/16 02:08:58;;;;;;;2.33;2.13;;;10.90;99.90;;;;;;5016918;28;20282;-78
2021/05/16 02:11:28;;;;;;;4.28;2.67;;;10.80;99.90;;;;;;5018351;28;20291;-78
2021/05/16 02:14:01;;;;;;;3.28;2.47;;;10.90;99.90;;;;;;5015817;28;20203;-76
2021/05/16 02:16:29;;;;;;;4.28;2.78;;;10.80;99.90;;;;;;5014672;28;20197;-76
2021/05/16 02:19:03;;;;;;;3.10;2.47;;;10.70;99.90;;;;;;5014517;28;20209;-76
2021/05/16 02:21:33;;;;;;;3.20;3.00;;;10.70;99.90;;;;;;5015178;28;20228;-76
2021/05/16 02:24:00;;;;;;;2.60;2.40;;;10.60;99.90;;;;;;4999093;28;20200;-77
2021/05/16 02:26:40;;;;;;;2.75;2.55;;;10.60;99.90;;;;;;5014554;28;20197;-76
2021/05/16 02:29:09;;;;;;;3.33;2.80;;;10.50;99.90;;;;;;5015506;28;20228;-77
2021/05/16 02:31:37;;;;;;;3.75;2.35;;;10.60;99.90;;;;;;4998311;28;20502;-77
2021/05/16 02:34:05;;;;;;;4.05;2.38;;;10.50;99.90;;;;;;5015917;28;20251;-77
2021/05/16 02:36:35;;;;;;;3.53;2.83;;;10.40;99.90;;;;;;5012636;28;20197;-76
2021/05/16 02:39:05;;;;;;;2.63;2.42;;;10.30;99.90;;;;;;5015330;28;20314;-77
2021/05/16 02:41:33;;;;;;;3.25;3.00;;;10.30;99.90;;;;;;5015826;28;20229;-77
2021/05/16 02:44:00;;;;;;;3.25;2.88;;;10.30;99.90;;;;;;5014223;28;20601;-77
2021/05/16 02:46:29;;;;;;;5.00;2.78;;;10.20;99.90;;;;;;5017311;28;20217;-77
2021/05/16 02:48:56;;;;;;;4.20;3.22;;;10.20;99.90;;;;;;5035234;28;20236;-76
2021/05/16 02:51:23;;;;;;;3.25;3.03;;;10.20;99.90;;;;;;5026208;28;20201;-76
2021/05/16 02:53:52;;;;;;;4.53;2.97;;;10.20;99.90;;;;;;5013899;28;20212;-77
2021/05/16 02:56:19;;;;;;;8.52;3.10;;;10.10;99.90;;;;;;4994363;28;20701;-76
2021/05/16 02:58:47;;;;;;;3.90;3.15;;;10.10;99.90;;;;;;5009399;28;20207;-77
2021/05/16 03:01:14;;;;;;;4.25;2.70;;;10.10;99.90;;;;;;5015128;28;20204;-76
2021/05/16 03:03:47;;;;;;;3.60;3.22;;;9.90;99.90;;;;;;5012902;28;20619;-76
2021/05/16 03:06:14;;;;;;;4.53;3.92;;;9.80;99.90;;;;;;4996530;28;20211;-76
2021/05/16 03:08:41;;;;;;;4.95;3.25;;;9.80;99.90;;;;;;5016503;28;20196;-76
2021/05/16 03:11:08;;;;;;;7.25;4.10;;;9.80;99.90;;;;;;5001450;28;20204;-77
2021/05/16 03:13:36;;;;;;;6.05;3.72;;;9.80;99.90;;;;;;4990870;28;20197;-77
2021/05/16 03:16:13;;;;;;;4.95;3.50;;;9.80;99.90;;;;;;5016903;28;20221;-78
2021/05/16 03:18:40;;;;;;;6.57;4.18;;;9.90;99.90;;;;;;5022846;28;20204;-78
2021/05/16 03:21:08;;;;;;;5.40;3.78;;;10.00;99.90;;;;;;5021900;28;20837;-77
2021/05/16 03:23:35;;;;;;;4.10;3.28;;;10.10;99.90;;;;;;5018180;28;20239;-77
2021/05/16 03:26:03;;;;;;;5.15;3.25;;;10.20;99.90;;;;;;5014775;28;20295;-77
2021/05/16 03:28:30;;;;;;;5.75;3.42;;;10.10;99.90;;;;;;5015447;28;20216;-77
2021/05/16 03:30:58;;;;;;;3.85;3.35;;;10.20;99.90;;;;;;5020025;28;20196;-77
2021/05/16 03:33:25;;;;;;;4.35;3.47;;;10.20;99.90;;;;;;4999242;28;20201;-77
2021/05/16 03:35:52;;;;;;;3.83;3.30;;;10.30;99.90;;;;;;5016348;28;20275;-77
2021/05/16 03:38:20;;;;;;;4.57;3.38;;;10.30;99.90;;;;;;5017353;28;20196;-77
2021/05/16 03:40:47;;;;;;;5.50;3.80;;;10.30;99.90;;;;;;5018886;28;20251;-79
2021/05/16 03:43:13;;;;;;;6.95;3.28;;;10.30;99.90;;;;;;5020125;28;20204;-77
2021/05/16 03:45:41;;;;;;;4.93;3.30;;;10.20;99.90;;;;;;5014355;28;20230;-77
2021/05/16 03:48:08;;;;;;;5.25;4.50;;;10.20;99.90;;;;;;5015304;28;20208;-77
2021/05/16 03:50:34;;;;;;;6.03;4.00;;;10.30;99.90;;;;;;5015291;28;20208;-77
2021/05/16 03:53:01;;;;;;;8.23;4.50;;;10.40;99.90;;;;;;5015486;28;20619;-77
2021/05/16 03:55:29;;;;;;;7.55;4.40;;;10.30;99.90;;;;;;5014302;28;20208;-77
2021/05/16 03:57:56;;;;;;;7.45;5.00;;;10.40;99.90;;;;;;5038458;28;20192;-77
2021/05/16 04:00:23;;;;;;;7.05;4.60;;;10.50;99.90;;;;;;5033883;28;20242;-76
2021/05/16 04:02:50;;;;;;;8.15;5.90;;;10.50;99.90;;;;;;4997185;28;20691;-77
2021/05/16 04:05:17;;;;;;;14.32;6.07;;;10.50;99.90;;;;;;5008726;28;20220;-77
2021/05/16 04:07:44;;;;;;;7.18;5.68;;;10.50;99.90;;;;;;5016944;28;20200;-77
2021/05/16 04:10:11;;;;;;;6.88;5.38;;;10.60;99.90;;;;;;5016162;28;20678;-77
2021/05/16 04:12:39;;;;;;;10.23;6.15;;;10.70;99.90;;;;;;5015973;28;20205;-77
2021/05/16 04:15:17;;;;;;;12.15;6.65;;;10.60;99.90;;;;;;5018962;28;20225;-77
2021/05/16 04:17:43;;;;;;;8.60;6.28;;;10.70;99.90;;;;;;4989824;28;20220;-37
2021/05/16 04:20:11;;;;;;;5.45;5.00;;;10.80;99.90;;;;;;4990823;28;20615;-36
2021/05/16 04:22:38;;;;;;;8.35;6.47;;;10.80;99.90;;;;;;4991035;28;20225;-36
2021/05/16 04:25:06;;;;;;;14.32;7.07;;;10.90;99.90;;;;;;4991141;28;20237;-37
2021/05/16 04:27:33;;;;;;;13.00;5.80;;;11.00;99.90;;;;;;4991676;28;20727;-37
2021/05/16 04:30:01;;;;;;;8.45;6.05;;;10.80;99.90;;;;;;4991269;28;20579;-36
2021/05/16 04:32:27;;;;;;;8.88;6.03;;;10.90;99.90;;;;;;4990838;28;20217;-37
2021/05/16 04:34:54;;;;;;;10.75;6.32;;;11.00;99.90;;;;;;4991520;28;20189;-36
2021/05/16 04:37:21;;;;;;;11.10;7.03;;;10.90;99.90;;;;;;4993193;28;20206;-39
2021/05/16 04:39:48;;;;;;;11.00;6.25;;;10.90;99.90;;;;;;4991416;28;20197;-37
2021/05/16 04:42:15;;;;;;;7.72;6.05;;;11.00;99.90;;;;;;4989828;28;20825;-38
2021/05/16 04:44:42;;;;;;;7.15;5.43;;;11.10;99.90;;;;;;4990809;28;20221;-37
2021/05/16 04:47:09;;;;;;;11.02;5.88;;;11.00;99.90;;;;;;4990311;28;20578;-37
2021/05/16 04:49:36;;;;;;;6.68;6.00;;;11.10;99.90;;;;;;4974602;28;20201;-37
2021/05/16 04:52:04;;;;;;;10.30;6.00;;;11.10;99.90;;;;;;4990870;28;20213;-37
2021/05/16 04:54:30;;;;;;;10.80;6.68;;;11.10;99.90;;;;;;4989572;28;20208;-38
2021/05/16 04:56:57;;;;;;;10.50;5.70;;;11.10;99.90;;;;;;4990701;28;20671;-36
2021/05/16 04:59:24;;;;;;;9.02;7.03;;;11.10;99.90;;;;;;4990577;28;20197;-37
2021/05/16 05:01:51;;;;;;;12.30;6.43;;;11.10;99.90;;;;;;4994984;28;20275;-38
2021/05/16 05:04:19;;;;;;;7.93;5.72;;;11.10;99.90;;;;;;4995027;28;20218;-36
2021/05/16 05:06:45;;;;;;;6.25;5.25;;;11.30;99.90;;;;;;4994681;28;20272;-36
2021/05/16 05:09:12;;;;;;;9.30;6.32;;;11.40;99.90;;;;;;4994537;28;20200;-37
2021/05/16 05:11:39;;;;;;;7.65;6.82;;;11.30;99.90;;;;;;4994060;28;20228;-37
2021/05/16 05:14:06;;;;;;;7.90;5.57;;;11.20;99.90;;;;;;4994751;28;20208;-37
2021/05/16 05:16:32;;;;;;;9.20;5.70;;;11.30;99.90;;;;;;4994324;28;20205;-37
2021/05/16 05:18:59;;;;;;;7.10;5.45;;;11.20;99.90;;;;;;4994337;28;20208;-37
2021/05/16 05:21:27;;;;;;;5.70;4.70;;;11.30;99.90;;;;;;4994140;28;20228;-37
2021/05/16 05:23:53;;;;;;;6.97;6.13;;;11.20;99.90;;;;;;4994050;28;20209;-38
2021/05/16 05:26:20;;;;;;;6.53;5.95;;;11.30;99.90;;;;;;4994091;28;20224;-37
2021/05/16 05:28:46;;;;;;;10.57;6.80;;;11.40;99.90;;;;;;4994522;28;20206;-36
2021/05/16 05:31:13;;;;;;;7.30;5.40;;;11.50;99.90;;;;;;4994288;28;20637;-38
2021/05/16 05:33:40;;;;;;;10.48;6.80;;;11.60;99.90;;;;;;4994422;28;20197;-36
2021/05/16 05:36:07;;;;;;;7.15;6.53;;;11.50;99.90;;;;;;4994588;28;20604;-36
2021/05/16 05:38:34;;;;;;;7.35;5.93;;;11.40;99.90;;;;;;4993602;28;20674;-37
2021/05/16 05:41:01;;;;;;;6.75;5.70;;;11.40;99.90;;;;;;4993520;28;20214;-37
2021/05/16 05:43:28;;;;;;;9.00;6.28;;;11.40;99.90;;;;;;4994516;28;20197;-36
2021/05/16 05:45:55;;;;;;;9.93;4.95;;;11.40;99.90;;;;;;4994178;28;20221;-36
2021/05/16 05:48:22;;;;;;;10.63;5.32;;;11.40;99.90;;;;;;4993962;28;20192;-38
2021/05/16 05:50:49;;;;;;;10.02;5.55;;;11.30;99.90;;;;;;4993099;28;20280;-37
2021/05/16 05:53:16;;;;;;;9.82;4.88;;;11.30;99.90;;;;;;4993696;28;20206;-37
2021/05/16 05:55:43;;;;;;;12.13;6.50;;;11.30;99.90;;;;;;4994232;28;20568;-37
2021/05/16 05:58:10;;;;;;;11.93;6.55;;;11.30;99.90;;;;;;4993753;28;20678;-38
2021/05/16 06:00:38;;;;;;;9.05;5.05;;;11.40;99.90;;;;;;4993239;28;20197;-36
2021/05/16 06:03:05;;;;;;;8.32;4.70;;;11.40;99.90;;;;;;4993316;28;20197;-37
2021/05/16 06:05:32;;;;;;;10.20;4.55;;;11.40;99.90;;;;;;4993438;28;20225;-36
2021/05/16 06:07:58;;;;;;;11.13;5.60;;;11.40;99.90;;;;;;4993723;28;20679;-37
2021/05/16 06:10:26;;;;;;;12.77;5.65;;;11.40;99.90;;;;;;4993066;28;20687;-36
2021/05/16 06:12:54;;;;;;;7.70;4.38;;;11.60;99.90;;;;;;4992739;28;20259;-37
2021/05/16 06:15:22;;;;;;;6.05;4.68;;;11.60;99.90;;;;;;4979462;28;20182;-36
2021/05/16 06:17:49;;;;;;;6.38;4.55;;;11.60;99.90;;;;;;4993627;28;20201;-36
2021/05/16 06:20:16;;;;;;;6.28;3.95;;;11.70;99.90;;;;;;4993070;28;20197;-37
2021/05/16 06:22:43;;;;;;;9.32;4.85;;;11.70;99.90;;;;;;4993882;28;20711;-37
2021/05/16 06:25:11;;;;;;;8.68;5.05;;;11.70;99.90;;;;;;4993510;28;20217;-39
2021/05/16 06:27:38;;;;;;;7.97;5.47;;;11.80;99.90;;;;;;4993449;28;20197;-38
2021/05/16 06:30:08;;;;;;;7.85;4.95;;;12.10;99.90;;;;;;4992990;28;20208;-37
2021/05/16 06:32:35;;;;;;;8.70;4.30;;;12.30;99.90;;;;;;4993033;28;20697;-38
2021/05/16 06:35:03;;;;;;;9.60;4.15;;;12.40;99.90;;;;;;4993276;28;20206;-39
2021/05/16 06:37:29;;;;;;;7.85;4.38;;;12.30;99.90;;;;;;4993103;28;20209;-37
2021/05/16 06:39:56;;;;;;;11.07;4.18;;;12.40;99.90;;;;;;4992376;28;20198;-37
2021/05/16 06:42:22;;;;;;;11.27;5.03;;;12.60;99.90;;;;;;4993039;28;20220;-39
2021/05/16 06:44:49;;;;;;;12.88;5.13;;;12.60;99.90;;;;;;4992062;28;20197;-38
2021/05/16 06:47:18;;;;;;;13.15;4.45;;;12.60;99.90;;;;;;4993004;28;20190;-37
2021/05/16 06:49:47;;;;;;;8.18;3.78;;;12.60;99.90;;;;;;4992425;28;20197;-37
2021/05/16 06:52:14;;;;;;;8.00;4.57;;;12.50;99.90;;;;;;4992934;28;20304;-38
2021/05/16 06:54:41;;;;;;;9.00;5.05;;;12.10;99.90;;;;;;4992482;28;20201;-39
2021/05/16 06:57:07;;;;;;;10.50;4.25;;;12.20;99.90;;;;;;4992625;28;20694;-37
2021/05/16 06:59:34;;;;;;;8.35;4.82;;;12.10;99.90;;;;;;4991902;28;20193;-38
2021/05/16 07:02:01;;;;;;;9.50;5.00;;;12.40;99.90;;;;;;4992730;28;20333;-37
2021/05/16 07:04:28;;;;;;;13.48;5.13;;;12.60;99.90;;;;;;4992222;28;20702;-37
2021/05/16 07:06:55;;;;;;;11.35;4.63;;;12.60;99.90;;;;;;4992148;28;20502;-37
2021/05/16 07:09:22;;;;;;;6.63;4.25;;;12.50;99.90;;;;;;4992028;28;20201;-37
2021/05/16 07:11:48;;;;;;;8.68;3.75;;;12.50;99.90;;;;;;4992467;28;20231;-37
2021/05/16 07:14:15;;;;;;;8.85;4.32;;;12.40;99.90;;;;;;4991996;28;20209;-37
2021/05/16 07:16:42;;;;;;;9.57;4.53;;;12.40;99.90;;;;;;4992529;28;20201;-38
2021/05/16 07:19:08;;;;;;;12.77;5.40;;;12.70;99.90;;;;;;4991571;28;20205;-37
2021/05/16 07:21:36;;;;;;;9.20;4.57;;;12.70;99.90;;;;;;4991991;28;20218;-38
2021/05/16 07:24:04;;;;;;;12.50;5.70;;;12.80;99.90;;;;;;4991445;28;20205;-36
2021/05/16 07:26:31;;;;;;;10.20;4.88;;;12.80;99.90;;;;;;4992219;28;20220;-37
2021/05/16 07:28:57;;;;;;;8.75;5.93;;;12.80;99.90;;;;;;4991312;28;20211;-37
2021/05/16 07:31:24;;;;;;;9.23;4.97;;;12.80;99.90;;;;;;4990876;28;20288;-37
2021/05/16 07:33:51;;;;;;;14.38;5.85;;;12.80;99.90;;;;;;4991815;28;20228;-37
2021/05/16 07:36:17;;;;;;;14.77;5.63;;;12.70;99.90;;;;;;4992376;28;20714;-37
2021/05/16 07:38:45;;;;;;;15.02;6.82;;;12.70;99.90;;;;;;4992200;28;20584;-40
2021/05/16 07:41:12;;;;;;;13.77;6.90;;;12.50;99.90;;;;;;4991675;28;20222;-40
2021/05/16 07:43:39;;;;;;;15.43;6.32;;;12.50;99.90;;;;;;4992339;28;20201;-37
2021/05/16 07:46:06;;;;;;;13.73;5.75;;;12.40;99.90;;;;;;4992241;28;20228;-37
2021/05/16 07:48:33;;;;;;;13.52;6.53;;;12.40;99.90;;;;;;4991669;28;20625;-39
2021/05/16 07:51:01;;;;;;;13.88;5.82;;;12.50;99.90;;;;;;4991841;28;20307;-36
2021/05/16 07:53:28;;;;;;;12.73;5.78;;;12.60;99.90;;;;;;4991228;28;20566;-38
2021/05/16 07:55:56;;;;;;;19.85;5.38;;;12.60;99.90;;;;;;4990970;28;20212;-39
2021/05/16 07:58:22;;;;;;;14.70;5.30;;;12.30;99.90;;;;;;4987662;28;20284;-38
2021/05/16 08:00:49;;;;;;;13.50;4.65;;;12.30;99.90;;;;;;4988839;28;20221;-37
2021/05/16 08:03:16;;;;;;;16.17;4.80;;;12.20;99.90;;;;;;4991599;28;20202;-37
2021/05/16 08:05:42;;;;;;;14.63;5.15;;;12.50;99.90;;;;;;4991232;28;20348;-37
2021/05/16 08:08:09;;;;;;;16.85;4.35;;;12.50;99.90;;;;;;4990838;28;20214;-38
2021/05/16 08:10:36;;;;;;;11.55;5.38;;;12.50;99.90;;;;;;4982295;28;20757;-37
2021/05/16 08:13:03;;;;;;;10.32;5.28;;;12.40;99.90;;;;;;4990705;28;20595;-37
2021/05/16 08:15:32;;;;;;;9.82;4.18;;;12.40;99.90;;;;;;4990752;28;20575;-37
2021/05/16 08:17:59;;;;;;;9.45;3.83;;;12.60;99.90;;;;;;4991591;28;20197;-39
2021/05/16 08:20:26;;;;;;;11.75;5.22;;;12.60;99.90;;;;;;4990685;28;20193;-37
2021/05/16 08:22:52;;;;;;;9.32;4.22;;;12.70;99.90;;;;;;4995159;28;20690;-39
2021/05/16 08:25:19;;;;;;;15.73;4.97;;;12.70;99.90;;;;;;5007594;28;20228;-38
2021/05/16 08:27:46;;;;;;;8.32;3.03;;;12.80;99.90;;;;;;5004872;28;20672;-37
2021/05/16 08:30:14;;;;;;;13.82;5.30;;;12.70;99.90;;;;;;5009100;28;20300;-37
2021/05/16 08:32:41;;;;;;;12.63;4.18;;;12.90;99.90;;;;;;5007540;28;20217;-39
2021/05/16 08:35:09;;;;;;;11.95;4.57;;;13.10;99.90;;;;;;5003896;28;20213;-38
2021/05/16 08:37:35;;;;;;;14.73;5.03;;;13.20;99.90;;;;;;5005613;28;20275;-37
2021/05/16 08:40:02;;;;;;;10.05;4.10;;;13.30;99.90;;;;;;5001289;28;20694;-38
2021/05/16 08:42:29;;;;;;;10.90;3.75;;;13.50;99.90;;;;;;5006453;28;20784;-37
2021/05/16 08:44:56;;;;;;;11.35;3.33;;;13.40;99.90;;;;;;5008149;28;20192;-37
2021/05/16 08:47:25;;;;;;;10.57;4.15;;;13.60;99.90;;;;;;5005743;28;20193;-37
2021/05/16 08:49:51;;;;;;;7.85;3.08;;;13.70;99.90;;;;;;5006730;28;20197;-37
2021/05/16 08:52:18;;;;;;;14.90;4.13;;;13.50;99.90;;;;;;4995122;28;20860;-37
2021/05/16 08:54:51;;;;;;;8.05;3.20;;;13.60;99.90;;;;;;4995275;28;20663;-37
2021/05/16 08:57:18;;;;;;;8.45;3.72;;;13.60;99.90;;;;;;4995901;28;20678;-38
2021/05/16 09:00:07;;;;;;;10.25;3.42;;;13.80;99.90;;;;;;5007112;28;20193;-37
2021/05/16 09:02:35;;;;;;;12.18;4.18;;;14.30;99.90;;;;;;5002066;28;20701;-37
2021/05/16 09:05:01;;;;;;;12.85;3.80;;;14.40;99.90;;;;;;5004801;28;20209;-37
2021/05/16 09:07:29;;;;;;;11.35;3.40;;;14.30;99.90;;;;;;5009392;28;20201;-37
2021/05/16 09:09:55;;;;;;;9.80;3.33;;;14.30;99.90;;;;;;5006077;28;20201;-38
2021/05/16 09:12:23;;;;;;;7.70;3.53;;;14.30;99.90;;;;;;5003529;28;20272;-37
2021/05/16 09:14:51;;;;;;;8.50;3.88;;;14.60;99.90;;;;;;4997998;28;20213;-38
2021/05/16 09:17:25;;;;;;;16.33;4.57;;;14.80;99.90;;;;;;5003133;28;20248;-38
2021/05/16 09:19:54;;;;;;;11.70;3.95;;;14.70;99.90;;;;;;5004736;28;20196;-36
2021/05/16 09:22:38;;;;;;;9.63;3.72;;;14.60;99.90;;;;;;4993201;28;20641;-36
2021/05/16 09:25:07;;;;;;;15.13;4.22;;;14.60;99.90;;;;;;4990358;28;20568;-37
2021/05/16 09:27:34;;;;;;;12.77;3.13;;;14.70;99.90;;;;;;5006786;28;20193;-37
2021/05/16 09:30:01;;;;;;;9.90;3.17;;;14.80;99.90;;;;;;5006864;28;20539;-38
2021/05/16 09:32:44;;;;;;;7.93;3.10;;;14.90;99.90;;;;;;5005606;28;20227;-38
2021/05/16 09:35:12;;;;;;;6.47;2.72;;;15.00;99.90;;;;;;5002226;28;20211;-39
2021/05/16 09:37:55;;;;;;;10.85;2.88;;;15.00;99.90;;;;;;4993926;28;20209;-37
2021/05/16 09:40:25;;;;;;;8.32;2.63;;;15.20;99.90;;;;;;4980856;28;20201;-38
2021/05/16 09:43:07;;;;;;;13.10;2.78;;;15.60;99.90;;;;;;5005751;28;20211;-39
2021/05/16 09:45:50;;;;;;;12.40;3.65;;;15.80;99.90;;;;;;4990294;28;20309;-37
2021/05/16 09:48:29;;;;;;;18.23;3.13;;;15.90;99.90;;;;;;4992325;28;20208;-37
2021/05/16 09:51:33;;;;;;;9.55;3.42;;;16.00;99.90;;;;;;4996065;28;20220;-37
2021/05/16 09:54:06;;;;;;;5.72;2.35;;;16.00;99.90;;;;;;4992772;28;20197;-38
2021/05/16 09:56:36;;;;;;;5.47;2.50;;;15.90;99.90;;;;;;4994164;28;20186;-38
2021/05/16 09:59:06;;;;;;;7.28;2.25;;;16.00;99.90;;;;;;4995117;28;20623;-38
2021/05/16 10:01:33;;;;;;;6.63;2.45;;;15.50;99.90;;;;;;5002316;28;20251;-38
2021/05/16 10:04:02;;;;;;;11.35;3.13;;;15.40;99.90;;;;;;5024633;28;20200;-38
2021/05/16 10:06:30;;;;;;;10.32;2.63;;;15.50;99.90;;;;;;5005808;28;20557;-38
2021/05/16 10:08:57;;;;;;;11.38;2.67;;;15.80;99.90;;;;;;5007177;28;20235;-38
2021/05/16 10:11:27;;;;;;;12.25;4.82;;;15.40;99.90;;;;;;5014794;28;20304;-37
2021/05/16 10:14:00;;;;;;;9.20;2.40;;;15.80;99.90;;;;;;4992649;28;20201;-37
2021/05/16 10:16:30;;;;;;;6.55;2.55;;;15.80;99.90;;;;;;4993128;28;20229;-38
2021/05/16 10:18:58;;;;;;;6.13;1.92;;;15.70;99.90;;;;;;4993773;28;20208;-38
2021/05/16 10:21:25;;;;;;;6.45;2.15;;;15.80;99.90;;;;;;4992024;28;20256;-37
2021/05/16 10:24:09;;;;;;;7.65;2.53;;;16.10;99.90;;;;;;5003621;28;20200;-38
2021/05/16 10:26:37;;;;;;;9.88;2.70;;;16.10;99.90;;;;;;5006649;28;20232;-37
2021/05/16 10:29:06;;;;;;;9.35;2.55;;;16.50;99.90;;;;;;5002140;28;20201;-35
2021/05/16 10:31:50;;;;;;;3.63;1.85;;;16.40;99.90;;;;;;4992928;28;20213;-37
2021/05/16 10:34:41;;;;;;;7.47;3.22;;;16.40;99.90;;;;;;4991867;28;20611;-37
2021/05/16 10:37:42;;;;;;;7.70;2.72;;;16.40;99.90;;;;;;4993373;28;20193;-35
2021/05/16 10:40:34;;;;;;;13.40;2.85;;;16.50;99.90;;;;;;4991210;28;20236;-36
2021/05/16 10:43:03;;;;;;;7.18;2.95;;;16.50;99.90;;;;;;4992892;28;20193;-37
2021/05/16 10:45:35;;;;;;;6.25;2.47;;;16.60;99.90;;;;;;4992769;28;20229;-36
2021/05/16 10:48:13;;;;;;;6.65;2.60;;;16.60;99.90;;;;;;4991378;28;20224;-37
2021/05/16 10:50:51;;;;;;;8.98;2.17;;;16.40;99.90;;;;;;4992799;28;20194;-37
2021/05/16 10:53:29;;;;;;;7.60;2.63;;;16.10;99.90;;;;;;4993070;28;20193;-37
2021/05/16 10:56:12;;;;;;;5.72;3.25;;;16.30;99.90;;;;;;4993405;28;20197;-36
2021/05/16 10:58:41;;;;;;;6.57;2.30;;;16.30;99.90;;;;;;4991856;28;20363;-36
2021/05/16 11:01:09;;;;;;;4.60;1.80;;;16.30;99.90;;;;;;4991285;28;20267;-36
2021/05/16 11:03:45;;;;;;;6.47;2.33;;;16.40;99.90;;;;;;4992286;28;20200;-36
2021/05/16 11:06:12;;;;;;;7.18;2.60;;;16.50;99.90;;;;;;4993339;28;20209;-36
2021/05/16 11:09:12;;;;;;;10.63;2.90;;;17.00;99.90;;;;;;4990843;28;20197;-37
2021/05/16 11:11:54;;;;;;;7.00;2.35;;;17.30;99.90;;;;;;4989363;28;20217;-37
2021/05/16 11:14:22;;;;;;;4.72;2.47;;;17.30;99.90;;;;;;5000092;28;20224;-37
2021/05/16 11:16:52;;;;;;;7.65;2.92;;;17.20;99.90;;;;;;4988544;28;20201;-36
2021/05/16 11:19:23;;;;;;;6.63;2.60;;;17.60;99.90;;;;;;4991366;28;20279;-35
2021/05/16 11:21:50;;;;;;;9.32;2.80;;;17.40;99.90;;;;;;5007895;28;20611;-35
2021/05/16 11:24:31;;;;;;;5.00;2.13;;;17.00;99.90;;;;;;4999764;28;20239;-35
2021/05/16 11:26:59;;;;;;;7.18;2.40;;;16.90;99.90;;;;;;4991730;28;20276;-35
2021/05/16 11:29:26;;;;;;;8.48;2.42;;;16.80;99.90;;;;;;4991616;28;20190;-38
2021/05/16 11:32:04;;;;;;;7.20;2.15;;;17.00;99.90;;;;;;4991117;28;20225;-35
2021/05/16 11:34:30;;;;;;;6.43;2.30;;;17.30;99.90;;;;;;4991537;28;20197;-35
2021/05/16 11:36:57;;;;;;;6.30;2.83;;;17.30;99.90;;;;;;4991985;28;20224;-35
2021/05/16 11:39:23;;;;;;;8.45;2.20;;;17.20;99.90;;;;;;4990373;28;20231;-35
2021/05/16 11:41:50;;;;;;;9.38;1.85;;;17.00;99.90;;;;;;4990474;28;20217;-35
2021/05/16 11:44:24;;;;;;;11.85;2.88;;;16.50;99.90;;;;;;4991640;28;20193;-35
2021/05/16 11:46:51;;;;;;;8.82;2.72;;;16.20;99.90;;;;;;4991589;28;20223;-35
2021/05/16 11:49:26;;;;;;;6.03;2.53;;;16.00;99.90;;;;;;4990654;28;20226;-35
2021/05/16 11:51:56;;;;;;;5.05;1.92;;;15.90;99.90;;;;;;4991770;28;20216;-35
2021/05/16 11:54:26;;;;;;;15.57;4.68;;;15.70;99.90;;;;;;4991179;28;20202;-35
2021/05/16 11:56:53;;;;;;;8.07;1.67;;;15.30;99.90;;;;;;4991773;28;20325;-34
2021/05/16 11:59:27;;;;;;;5.68;1.92;;;14.90;99.90;;;;;;4991454;28;20221;-34
2021/05/16 12:01:56;;;;;;;4.82;1.77;;;14.10;99.90;;;;;;4998887;28;20213;-35
2021/05/16 12:04:22;;;;;;;10.63;2.38;;;13.50;99.90;;;;;;4991280;28;20754;-35
2021/05/16 12:06:51;;;;;;;5.53;1.75;;;13.60;99.90;;;;;;5000986;28;20216;-35
2021/05/16 12:09:19;;;;;;;3.85;1.95;;;13.80;99.90;;;;;;5003904;28;20204;-34
2021/05/16 12:11:48;;;;;;;4.65;2.33;;;14.00;99.90;;;;;;5003788;28;20216;-34
2021/05/16 12:14:15;;;;;;;4.53;1.75;;;14.30;99.90;;;;;;4990932;28;20235;-35
2021/05/16 12:16:50;;;;;;;7.85;2.47;;;14.30;99.90;;;;;;5005482;28;20231;-34
2021/05/16 12:19:20;;;;;;;5.53;1.67;;;14.20;99.90;;;;;;4998548;28;20678;-37
2021/05/16 12:21:51;;;;;;;5.07;2.35;;;14.10;99.90;;;;;;5000771;28;20410;-36
2021/05/16 12:24:21;;;;;;;3.55;1.65;;;14.20;99.90;;;;;;4990117;28;20687;-37
2021/05/16 12:26:48;;;;;;;3.15;1.80;;;14.40;99.90;;;;;;4989121;28;20304;-37
2021/05/16 12:29:17;;;;;;;4.07;1.58;;;14.50;99.90;;;;;;4991492;28;20659;-37
2021/05/16 12:31:44;;;;;;;4.43;1.85;;;14.60;99.90;;;;;;4990328;28;20221;-36
2021/05/16 12:34:13;;;;;;;8.32;2.78;;;14.60;99.90;;;;;;4990973;28;20189;-37
2021/05/16 12:36:48;;;;;;;6.65;2.13;;;15.00;99.90;;;;;;5008781;28;20678;-37
2021/05/16 12:39:15;;;;;;;5.88;2.28;;;15.10;99.90;;;;;;4988717;28;20232;-37
2021/05/16 12:41:41;;;;;;;6.07;1.98;;;15.30;99.90;;;;;;4990433;28;20733;-37
2021/05/16 12:44:10;;;;;;;6.20;4.38;;;15.90;99.90;;;;;;4990358;28;20216;-37
2021/05/16 12:46:43;;;;;;;3.63;2.38;;;16.30;99.90;;;;;;4990588;28;20248;-37
2021/05/16 12:49:13;;;;;;;1.27;0.93;;;16.30;99.90;;;;;;5010393;28;20203;-35
2021/05/16 12:51:41;;;;;;;3.08;1.38;;;15.90;99.90;;;;;;4989774;28;20232;-36
2021/05/16 12:54:19;;;;;;;0.82;0.82;;;15.50;99.90;;;;;;4991028;28;20221;-35